sensor_id;sensor_type;location;lat;lon;timestamp;P1;durP1;ratioP1;P2;durP2;ratioP2
23573;SDS011;11965;53.640;10.050;2022-09-06T00:02:22;1.63;;;0.90;;
23573;SDS011;11965;53.640;10.050;2022-09-06T00:04:47;1.60;;;1.00;;
23573;SDS011;11965;53.640;10.050;2022-09-06T00:07:13;2.85;;;1.15;;
23573;SDS011;11965;53.640;10.050;2022-09-06T00:09:38;1.67;;;1.00;;
23573;SDS011;11965;53.640;10.050;2022-09-06T00:12:04;1.30;;;1.00;;
23573;SDS011;11965;53.640;10.050;2022-09-06T00:14:30;1.33;;;1.20;;
23573;SDS011;11965;53.640;10.050;2022-09-06T00:16:55;3.50;;;1.20;;
23573;SDS011;11965;53.640;10.050;2022-09-06T00:19:20;1.27;;;1.00;;
23573;SDS011;11965;53.640;10.050;2022-09-06T00:21:46;2.17;;;1.10;;
23573;SDS011;11965;53.640;10.050;2022-09-06T00:24:12;1.45;;;1.30;;
23573;SDS011;11965;53.640;10.050;2022-09-06T00:26:37;1.73;;;1.17;;
23573;SDS011;11965;53.640;10.050;2022-09-06T00:29:03;1.48;;;1.00;;
23573;SDS011;11965;53.640;10.050;2022-09-06T00:31:28;1.63;;;1.23;;
23573;SDS011;11965;53.640;10.050;2022-09-06T00:33:53;1.42;;;0.98;;
23573;SDS011;11965;53.640;10.050;2022-09-06T00:36:21;2.38;;;1.10;;
23573;SDS011;11965;53.640;10.050;2022-09-06T00:38:47;1.15;;;1.05;;
23573;SDS011;11965;53.640;10.050;2022-09-06T00:41:13;1.00;;;0.90;;
23573;SDS011;11965;53.640;10.050;2022-09-06T00:43:40;1.52;;;1.08;;
23573;SDS011;11965;53.640;10.050;2022-09-06T00:46:07;4.82;;;1.30;;
23573;SDS011;11965;53.640;10.050;2022-09-06T00:48:35;1.35;;;1.25;;
23573;SDS011;11965;53.640;10.050;2022-09-06T00:51:04;1.30;;;1.20;;
23573;SDS011;11965;53.640;10.050;2022-09-06T00:53:33;1.73;;;1.17;;
23573;SDS011;11965;53.640;10.050;2022-09-06T00:55:58;1.20;;;1.10;;
23573;SDS011;11965;53.640;10.050;2022-09-06T00:58:24;3.10;;;1.27;;
23573;SDS011;11965;53.640;10.050;2022-09-06T01:00:51;1.48;;;1.30;;
23573;SDS011;11965;53.640;10.050;2022-09-06T01:03:16;1.85;;;0.98;;
23573;SDS011;11965;53.640;10.050;2022-09-06T01:16:22;1.48;;;1.23;;
23573;SDS011;11965;53.640;10.050;2022-09-06T01:32:08;1.40;;;1.27;;
23573;SDS011;11965;53.640;10.050;2022-09-06T01:34:41;1.80;;;1.23;;
23573;SDS011;11965;53.640;10.050;2022-09-06T01:37:12;1.20;;;1.02;;
23573;SDS011;11965;53.640;10.050;2022-09-06T01:39:40;1.20;;;1.10;;
23573;SDS011;11965;53.640;10.050;2022-09-06T01:42:11;2.08;;;1.20;;
23573;SDS011;11965;53.640;10.050;2022-09-06T01:44:37;2.03;;;1.40;;
23573;SDS011;11965;53.640;10.050;2022-09-06T01:47:27;1.65;;;1.30;;
23573;SDS011;11965;53.640;10.050;2022-09-06T02:00:38;2.22;;;1.23;;
23573;SDS011;11965;53.640;10.050;2022-09-06T02:03:26;3.08;;;1.27;;
23573;SDS011;11965;53.640;10.050;2022-09-06T02:06:02;1.75;;;1.20;;
23573;SDS011;11965;53.640;10.050;2022-09-06T02:08:34;1.95;;;1.17;;
23573;SDS011;11965;53.640;10.050;2022-09-06T02:11:06;1.73;;;1.25;;
23573;SDS011;11965;53.640;10.050;2022-09-06T02:13:44;1.55;;;1.30;;
23573;SDS011;11965;53.640;10.050;2022-09-06T02:16:17;1.30;;;1.20;;
23573;SDS011;11965;53.640;10.050;2022-09-06T02:19:34;2.97;;;1.45;;
23573;SDS011;11965;53.640;10.050;2022-09-06T02:21:45;2.45;;;1.20;;
23573;SDS011;11965;53.640;10.050;2022-09-06T02:24:17;2.40;;;1.20;;
23573;SDS011;11965;53.640;10.050;2022-09-06T02:26:47;2.03;;;1.38;;
23573;SDS011;11965;53.640;10.050;2022-09-06T02:29:14;1.25;;;1.15;;
23573;SDS011;11965;53.640;10.050;2022-09-06T02:34:15;2.28;;;1.50;;
23573;SDS011;11965;53.640;10.050;2022-09-06T02:36:44;2.13;;;1.35;;
23573;SDS011;11965;53.640;10.050;2022-09-06T02:39:11;1.55;;;1.20;;
23573;SDS011;11965;53.640;10.050;2022-09-06T02:41:37;1.40;;;1.30;;
23573;SDS011;11965;53.640;10.050;2022-09-06T02:44:07;1.65;;;1.30;;
23573;SDS011;11965;53.640;10.050;2022-09-06T02:46:33;2.42;;;1.27;;
23573;SDS011;11965;53.640;10.050;2022-09-06T02:49:00;1.38;;;1.27;;
23573;SDS011;11965;53.640;10.050;2022-09-06T02:51:27;2.40;;;1.40;;
23573;SDS011;11965;53.640;10.050;2022-09-06T02:53:53;1.88;;;1.40;;
23573;SDS011;11965;53.640;10.050;2022-09-06T02:56:18;2.55;;;1.30;;
23573;SDS011;11965;53.640;10.050;2022-09-06T02:58:46;1.42;;;1.20;;
23573;SDS011;11965;53.640;10.050;2022-09-06T03:01:12;2.00;;;1.48;;
23573;SDS011;11965;53.640;10.050;2022-09-06T03:03:37;3.63;;;1.13;;
23573;SDS011;11965;53.640;10.050;2022-09-06T03:06:02;2.28;;;1.05;;
23573;SDS011;11965;53.640;10.050;2022-09-06T03:08:28;3.08;;;1.52;;
23573;SDS011;11965;53.640;10.050;2022-09-06T03:10:57;2.03;;;1.30;;
23573;SDS011;11965;53.640;10.050;2022-09-06T03:13:24;5.07;;;1.23;;
23573;SDS011;11965;53.640;10.050;2022-09-06T03:15:53;1.75;;;1.27;;
23573;SDS011;11965;53.640;10.050;2022-09-06T03:18:21;2.38;;;1.30;;
23573;SDS011;11965;53.640;10.050;2022-09-06T03:20:48;3.97;;;1.40;;
23573;SDS011;11965;53.640;10.050;2022-09-06T03:23:16;2.55;;;1.40;;
23573;SDS011;11965;53.640;10.050;2022-09-06T03:25:43;2.78;;;1.35;;
23573;SDS011;11965;53.640;10.050;2022-09-06T03:28:09;2.63;;;1.48;;
23573;SDS011;11965;53.640;10.050;2022-09-06T03:30:34;2.42;;;1.17;;
23573;SDS011;11965;53.640;10.050;2022-09-06T03:33:01;2.35;;;1.50;;
23573;SDS011;11965;53.640;10.050;2022-09-06T03:35:26;2.25;;;1.30;;
23573;SDS011;11965;53.640;10.050;2022-09-06T03:37:52;1.50;;;1.30;;
23573;SDS011;11965;53.640;10.050;2022-09-06T03:40:17;1.80;;;1.45;;
23573;SDS011;11965;53.640;10.050;2022-09-06T03:42:43;2.08;;;1.30;;
23573;SDS011;11965;53.640;10.050;2022-09-06T03:45:10;2.83;;;1.27;;
23573;SDS011;11965;53.640;10.050;2022-09-06T03:47:37;4.10;;;1.40;;
23573;SDS011;11965;53.640;10.050;2022-09-06T03:50:04;2.60;;;1.40;;
23573;SDS011;11965;53.640;10.050;2022-09-06T03:52:30;1.70;;;1.23;;
23573;SDS011;11965;53.640;10.050;2022-09-06T03:54:56;2.63;;;1.30;;
23573;SDS011;11965;53.640;10.050;2022-09-06T03:57:22;1.92;;;1.40;;
23573;SDS011;11965;53.640;10.050;2022-09-06T03:59:49;3.78;;;1.50;;
23573;SDS011;11965;53.640;10.050;2022-09-06T04:02:14;1.70;;;1.30;;
23573;SDS011;11965;53.640;10.050;2022-09-06T04:04:39;2.00;;;1.35;;
23573;SDS011;11965;53.640;10.050;2022-09-06T04:07:05;1.55;;;1.27;;
23573;SDS011;11965;53.640;10.050;2022-09-06T04:09:31;1.65;;;1.15;;
23573;SDS011;11965;53.640;10.050;2022-09-06T04:11:57;1.88;;;1.33;;
23573;SDS011;11965;53.640;10.050;2022-09-06T04:14:22;1.40;;;1.20;;
23573;SDS011;11965;53.640;10.050;2022-09-06T04:16:48;1.77;;;1.20;;
23573;SDS011;11965;53.640;10.050;2022-09-06T04:19:14;3.53;;;1.75;;
23573;SDS011;11965;53.640;10.050;2022-09-06T04:21:40;2.45;;;1.30;;
23573;SDS011;11965;53.640;10.050;2022-09-06T04:24:06;2.25;;;1.40;;
23573;SDS011;11965;53.640;10.050;2022-09-06T04:26:31;3.63;;;1.25;;
23573;SDS011;11965;53.640;10.050;2022-09-06T04:28:57;2.70;;;1.40;;
23573;SDS011;11965;53.640;10.050;2022-09-06T04:31:22;1.60;;;1.33;;
23573;SDS011;11965;53.640;10.050;2022-09-06T04:33:48;1.88;;;1.35;;
23573;SDS011;11965;53.640;10.050;2022-09-06T04:36:14;1.98;;;1.20;;
23573;SDS011;11965;53.640;10.050;2022-09-06T04:38:40;2.05;;;1.40;;
23573;SDS011;11965;53.640;10.050;2022-09-06T04:41:08;1.75;;;1.20;;
23573;SDS011;11965;53.640;10.050;2022-09-06T04:43:35;1.42;;;1.10;;
23573;SDS011;11965;53.640;10.050;2022-09-06T04:46:03;1.98;;;1.30;;
23573;SDS011;11965;53.640;10.050;2022-09-06T04:48:29;1.70;;;0.95;;
23573;SDS011;11965;53.640;10.050;2022-09-06T04:50:55;1.75;;;1.20;;
23573;SDS011;11965;53.640;10.050;2022-09-06T04:53:20;2.63;;;1.05;;
23573;SDS011;11965;53.640;10.050;2022-09-06T04:55:46;1.63;;;1.10;;
23573;SDS011;11965;53.640;10.050;2022-09-06T04:58:12;2.13;;;1.33;;
23573;SDS011;11965;53.640;10.050;2022-09-06T05:00:37;2.10;;;1.13;;
23573;SDS011;11965;53.640;10.050;2022-09-06T05:03:04;1.77;;;1.25;;
23573;SDS011;11965;53.640;10.050;2022-09-06T05:05:29;1.35;;;0.98;;
23573;SDS011;11965;53.640;10.050;2022-09-06T05:07:55;2.63;;;1.48;;
23573;SDS011;11965;53.640;10.050;2022-09-06T05:10:21;1.42;;;1.15;;
23573;SDS011;11965;53.640;10.050;2022-09-06T05:12:47;1.67;;;1.30;;
23573;SDS011;11965;53.640;10.050;2022-09-06T05:15:15;1.20;;;1.10;;
23573;SDS011;11965;53.640;10.050;2022-09-06T05:17:41;1.80;;;1.13;;
23573;SDS011;11965;53.640;10.050;2022-09-06T05:20:06;2.75;;;1.30;;
23573;SDS011;11965;53.640;10.050;2022-09-06T05:22:33;4.45;;;1.40;;
23573;SDS011;11965;53.640;10.050;2022-09-06T05:24:59;1.95;;;1.13;;
23573;SDS011;11965;53.640;10.050;2022-09-06T05:27:24;2.70;;;1.02;;
23573;SDS011;11965;53.640;10.050;2022-09-06T05:29:50;1.95;;;1.00;;
23573;SDS011;11965;53.640;10.050;2022-09-06T05:32:15;1.77;;;1.30;;
23573;SDS011;11965;53.640;10.050;2022-09-06T05:34:40;2.65;;;1.30;;
23573;SDS011;11965;53.640;10.050;2022-09-06T05:37:06;2.03;;;1.10;;
23573;SDS011;11965;53.640;10.050;2022-09-06T05:39:32;3.00;;;1.00;;
23573;SDS011;11965;53.640;10.050;2022-09-06T05:41:57;1.20;;;1.08;;
23573;SDS011;11965;53.640;10.050;2022-09-06T05:44:24;2.17;;;1.20;;
23573;SDS011;11965;53.640;10.050;2022-09-06T05:46:50;3.53;;;1.50;;
23573;SDS011;11965;53.640;10.050;2022-09-06T05:49:15;1.17;;;0.93;;
23573;SDS011;11965;53.640;10.050;2022-09-06T05:51:41;2.55;;;1.00;;
23573;SDS011;11965;53.640;10.050;2022-09-06T05:54:09;1.20;;;1.10;;
23573;SDS011;11965;53.640;10.050;2022-09-06T05:56:35;3.20;;;1.02;;
23573;SDS011;11965;53.640;10.050;2022-09-06T05:59:01;2.88;;;1.20;;
23573;SDS011;11965;53.640;10.050;2022-09-06T06:01:29;1.35;;;1.10;;
23573;SDS011;11965;53.640;10.050;2022-09-06T06:03:58;2.47;;;1.10;;
23573;SDS011;11965;53.640;10.050;2022-09-06T06:06:30;1.33;;;1.02;;
23573;SDS011;11965;53.640;10.050;2022-09-06T06:08:56;1.60;;;1.20;;
23573;SDS011;11965;53.640;10.050;2022-09-06T06:11:22;6.72;;;1.27;;
23573;SDS011;11965;53.640;10.050;2022-09-06T06:13:50;1.05;;;1.00;;
23573;SDS011;11965;53.640;10.050;2022-09-06T06:16:16;1.63;;;1.10;;
23573;SDS011;11965;53.640;10.050;2022-09-06T06:18:43;1.33;;;0.90;;
23573;SDS011;11965;53.640;10.050;2022-09-06T06:21:09;2.00;;;1.20;;
23573;SDS011;11965;53.640;10.050;2022-09-06T06:23:39;2.13;;;1.02;;
23573;SDS011;11965;53.640;10.050;2022-09-06T06:26:06;3.28;;;1.27;;
23573;SDS011;11965;53.640;10.050;2022-09-06T06:28:33;1.08;;;1.00;;
23573;SDS011;11965;53.640;10.050;2022-09-06T06:31:00;1.80;;;1.10;;
23573;SDS011;11965;53.640;10.050;2022-09-06T06:33:26;1.42;;;1.30;;
23573;SDS011;11965;53.640;10.050;2022-09-06T06:35:55;3.38;;;1.10;;
23573;SDS011;11965;53.640;10.050;2022-09-06T06:38:22;1.30;;;0.95;;
23573;SDS011;11965;53.640;10.050;2022-09-06T06:40:48;1.00;;;0.90;;
23573;SDS011;11965;53.640;10.050;2022-09-06T06:43:13;3.72;;;0.95;;
23573;SDS011;11965;53.640;10.050;2022-09-06T06:45:38;1.08;;;0.90;;
23573;SDS011;11965;53.640;10.050;2022-09-06T06:48:04;1.13;;;1.05;;
23573;SDS011;11965;53.640;10.050;2022-09-06T06:50:30;5.18;;;1.35;;
23573;SDS011;11965;53.640;10.050;2022-09-06T06:52:55;1.20;;;1.00;;
23573;SDS011;11965;53.640;10.050;2022-09-06T06:55:21;1.58;;;1.00;;
23573;SDS011;11965;53.640;10.050;2022-09-06T06:57:46;4.50;;;1.00;;
23573;SDS011;11965;53.640;10.050;2022-09-06T07:00:12;1.70;;;1.10;;
23573;SDS011;11965;53.640;10.050;2022-09-06T07:02:38;2.63;;;1.10;;
23573;SDS011;11965;53.640;10.050;2022-09-06T07:05:03;3.28;;;1.23;;
23573;SDS011;11965;53.640;10.050;2022-09-06T07:07:30;1.23;;;1.13;;
23573;SDS011;11965;53.640;10.050;2022-09-06T07:09:55;1.83;;;0.98;;
23573;SDS011;11965;53.640;10.050;2022-09-06T07:12:22;3.85;;;1.13;;
23573;SDS011;11965;53.640;10.050;2022-09-06T07:14:48;1.17;;;1.08;;
23573;SDS011;11965;53.640;10.050;2022-09-06T07:17:13;2.10;;;1.05;;
23573;SDS011;11965;53.640;10.050;2022-09-06T07:19:39;2.72;;;1.08;;
23573;SDS011;11965;53.640;10.050;2022-09-06T07:22:04;1.52;;;1.00;;
23573;SDS011;11965;53.640;10.050;2022-09-06T07:24:30;3.50;;;0.80;;
23573;SDS011;11965;53.640;10.050;2022-09-06T07:26:55;1.80;;;1.10;;
23573;SDS011;11965;53.640;10.050;2022-09-06T07:29:21;5.82;;;1.23;;
23573;SDS011;11965;53.640;10.050;2022-09-06T07:31:46;4.45;;;0.93;;
23573;SDS011;11965;53.640;10.050;2022-09-06T07:34:11;2.13;;;1.17;;
23573;SDS011;11965;53.640;10.050;2022-09-06T07:36:37;3.08;;;1.08;;
23573;SDS011;11965;53.640;10.050;2022-09-06T07:39:03;2.90;;;1.05;;
23573;SDS011;11965;53.640;10.050;2022-09-06T07:41:29;1.90;;;1.10;;
23573;SDS011;11965;53.640;10.050;2022-09-06T07:43:54;2.05;;;1.05;;
23573;SDS011;11965;53.640;10.050;2022-09-06T07:46:20;1.33;;;1.10;;
23573;SDS011;11965;53.640;10.050;2022-09-06T07:48:46;2.38;;;1.05;;
23573;SDS011;11965;53.640;10.050;2022-09-06T07:51:20;1.10;;;1.00;;
23573;SDS011;11965;53.640;10.050;2022-09-06T07:56:17;2.15;;;1.35;;
23573;SDS011;11965;53.640;10.050;2022-09-06T07:58:45;1.23;;;1.13;;
23573;SDS011;11965;53.640;10.050;2022-09-06T08:03:57;1.35;;;1.20;;
23573;SDS011;11965;53.640;10.050;2022-09-06T08:06:24;1.80;;;1.23;;
23573;SDS011;11965;53.640;10.050;2022-09-06T08:08:51;1.48;;;1.30;;
23573;SDS011;11965;53.640;10.050;2022-09-06T08:11:18;1.30;;;1.20;;
23573;SDS011;11965;53.640;10.050;2022-09-06T08:13:51;3.90;;;1.23;;
23573;SDS011;11965;53.640;10.050;2022-09-06T08:16:21;1.98;;;1.30;;
23573;SDS011;11965;53.640;10.050;2022-09-06T08:18:52;1.83;;;1.08;;
23573;SDS011;11965;53.640;10.050;2022-09-06T08:21:19;3.60;;;1.15;;
23573;SDS011;11965;53.640;10.050;2022-09-06T08:23:48;2.05;;;1.27;;
23573;SDS011;11965;53.640;10.050;2022-09-06T08:26:16;2.97;;;1.40;;
23573;SDS011;11965;53.640;10.050;2022-09-06T08:28:43;1.55;;;1.17;;
23573;SDS011;11965;53.640;10.050;2022-09-06T08:31:10;2.53;;;1.20;;
23573;SDS011;11965;53.640;10.050;2022-09-06T08:33:40;1.83;;;1.25;;
23573;SDS011;11965;53.640;10.050;2022-09-06T08:36:07;1.52;;;1.20;;
23573;SDS011;11965;53.640;10.050;2022-09-06T08:38:34;3.90;;;1.30;;
23573;SDS011;11965;53.640;10.050;2022-09-06T08:43:34;2.45;;;1.45;;
23573;SDS011;11965;53.640;10.050;2022-09-06T08:46:01;2.83;;;1.38;;
23573;SDS011;11965;53.640;10.050;2022-09-06T08:48:29;3.08;;;1.60;;
23573;SDS011;11965;53.640;10.050;2022-09-06T08:53:49;3.42;;;1.33;;
23573;SDS011;11965;53.640;10.050;2022-09-06T08:56:27;1.83;;;1.33;;
23573;SDS011;11965;53.640;10.050;2022-09-06T08:59:03;3.17;;;1.42;;
23573;SDS011;11965;53.640;10.050;2022-09-06T09:04:09;3.95;;;1.67;;
23573;SDS011;11965;53.640;10.050;2022-09-06T09:06:39;2.17;;;1.40;;
23573;SDS011;11965;53.640;10.050;2022-09-06T09:09:06;2.05;;;1.40;;
23573;SDS011;11965;53.640;10.050;2022-09-06T09:11:36;1.95;;;1.67;;
23573;SDS011;11965;53.640;10.050;2022-09-06T09:14:09;2.08;;;1.50;;
23573;SDS011;11965;53.640;10.050;2022-09-06T09:16:40;2.75;;;1.45;;
23573;SDS011;11965;53.640;10.050;2022-09-06T09:19:06;2.58;;;1.60;;
23573;SDS011;11965;53.640;10.050;2022-09-06T09:21:37;1.90;;;1.75;;
23573;SDS011;11965;53.640;10.050;2022-09-06T09:24:06;2.95;;;1.60;;
23573;SDS011;11965;53.640;10.050;2022-09-06T09:29:21;2.45;;;1.40;;
23573;SDS011;11965;53.640;10.050;2022-09-06T09:39:45;2.85;;;1.42;;
23573;SDS011;11965;53.640;10.050;2022-09-06T09:42:15;4.70;;;1.80;;
23573;SDS011;11965;53.640;10.050;2022-09-06T09:44:52;1.95;;;1.45;;
23573;SDS011;11965;53.640;10.050;2022-09-06T09:47:24;2.60;;;1.85;;
23573;SDS011;11965;53.640;10.050;2022-09-06T09:49:54;3.15;;;1.67;;
23573;SDS011;11965;53.640;10.050;2022-09-06T09:52:25;2.05;;;1.77;;
23573;SDS011;11965;53.640;10.050;2022-09-06T09:55:04;3.65;;;1.60;;
23573;SDS011;11965;53.640;10.050;2022-09-06T09:57:31;1.60;;;1.42;;
23573;SDS011;11965;53.640;10.050;2022-09-06T10:00:09;1.67;;;1.38;;
23573;SDS011;11965;53.640;10.050;2022-09-06T10:02:38;3.47;;;1.70;;
23573;SDS011;11965;53.640;10.050;2022-09-06T10:05:07;2.80;;;1.75;;
23573;SDS011;11965;53.640;10.050;2022-09-06T10:07:49;2.22;;;1.75;;
23573;SDS011;11965;53.640;10.050;2022-09-06T10:10:20;5.68;;;1.90;;
23573;SDS011;11965;53.640;10.050;2022-09-06T10:12:46;3.92;;;2.08;;
23573;SDS011;11965;53.640;10.050;2022-09-06T10:18:02;4.03;;;1.90;;
23573;SDS011;11965;53.640;10.050;2022-09-06T10:20:38;3.72;;;2.17;;
23573;SDS011;11965;53.640;10.050;2022-09-06T10:25:44;2.78;;;1.80;;
23573;SDS011;11965;53.640;10.050;2022-09-06T10:33:34;2.17;;;1.70;;
23573;SDS011;11965;53.640;10.050;2022-09-06T10:36:13;2.42;;;1.75;;
23573;SDS011;11965;53.640;10.050;2022-09-06T10:41:22;1.75;;;1.65;;
23573;SDS011;11965;53.640;10.050;2022-09-06T10:47:08;4.00;;;1.85;;
23573;SDS011;11965;53.640;10.050;2022-09-06T10:49:36;2.80;;;1.63;;
23573;SDS011;11965;53.640;10.050;2022-09-06T10:52:06;2.78;;;1.70;;
23573;SDS011;11965;53.640;10.050;2022-09-06T10:54:36;4.30;;;1.90;;
23573;SDS011;11965;53.640;10.050;2022-09-06T10:57:10;2.55;;;1.75;;
23573;SDS011;11965;53.640;10.050;2022-09-06T10:59:53;1.67;;;1.50;;
23573;SDS011;11965;53.640;10.050;2022-09-06T11:02:35;2.60;;;1.80;;
23573;SDS011;11965;53.640;10.050;2022-09-06T11:05:12;3.78;;;1.85;;
23573;SDS011;11965;53.640;10.050;2022-09-06T11:07:45;2.50;;;1.70;;
23573;SDS011;11965;53.640;10.050;2022-09-06T11:10:33;3.95;;;1.90;;
23573;SDS011;11965;53.640;10.050;2022-09-06T11:13:07;4.05;;;1.55;;
23573;SDS011;11965;53.640;10.050;2022-09-06T11:18:08;2.45;;;1.70;;
23573;SDS011;11965;53.640;10.050;2022-09-06T11:20:51;4.70;;;1.83;;
23573;SDS011;11965;53.640;10.050;2022-09-06T11:29:20;1.60;;;1.50;;
23573;SDS011;11965;53.640;10.050;2022-09-06T11:31:56;4.82;;;1.63;;
23573;SDS011;11965;53.640;10.050;2022-09-06T11:34:32;3.75;;;1.50;;
23573;SDS011;11965;53.640;10.050;2022-09-06T11:37:03;1.40;;;1.23;;
23573;SDS011;11965;53.640;10.050;2022-09-06T11:39:34;2.08;;;1.35;;
23573;SDS011;11965;53.640;10.050;2022-09-06T11:47:42;1.67;;;1.50;;
23573;SDS011;11965;53.640;10.050;2022-09-06T11:57:56;2.88;;;1.33;;
23573;SDS011;11965;53.640;10.050;2022-09-06T12:00:23;4.68;;;1.60;;
23573;SDS011;11965;53.640;10.050;2022-09-06T12:02:50;2.05;;;1.50;;
23573;SDS011;11965;53.640;10.050;2022-09-06T12:05:21;2.10;;;1.65;;
23573;SDS011;11965;53.640;10.050;2022-09-06T12:10:59;2.10;;;1.60;;
23573;SDS011;11965;53.640;10.050;2022-09-06T12:16:03;2.63;;;1.58;;
23573;SDS011;11965;53.640;10.050;2022-09-06T12:24:03;4.47;;;1.60;;
23573;SDS011;11965;53.640;10.050;2022-09-06T12:29:54;2.58;;;1.50;;
23573;SDS011;11965;53.640;10.050;2022-09-06T12:32:27;3.65;;;1.70;;
23573;SDS011;11965;53.640;10.050;2022-09-06T12:34:56;2.05;;;1.70;;
23573;SDS011;11965;53.640;10.050;2022-09-06T12:37:29;3.60;;;1.95;;
23573;SDS011;11965;53.640;10.050;2022-09-06T12:40:12;2.95;;;1.50;;
23573;SDS011;11965;53.640;10.050;2022-09-06T12:42:38;4.25;;;2.00;;
23573;SDS011;11965;53.640;10.050;2022-09-06T12:45:05;1.70;;;1.60;;
23573;SDS011;11965;53.640;10.050;2022-09-06T12:47:32;3.90;;;1.60;;
23573;SDS011;11965;53.640;10.050;2022-09-06T12:52:42;10.63;;;1.77;;
23573;SDS011;11965;53.640;10.050;2022-09-06T12:55:14;2.58;;;1.50;;
23573;SDS011;11965;53.640;10.050;2022-09-06T12:57:47;2.00;;;1.48;;
23573;SDS011;11965;53.640;10.050;2022-09-06T13:00:15;3.75;;;1.60;;
23573;SDS011;11965;53.640;10.050;2022-09-06T13:02:50;2.35;;;1.85;;
23573;SDS011;11965;53.640;10.050;2022-09-06T13:05:19;1.35;;;1.25;;
23573;SDS011;11965;53.640;10.050;2022-09-06T13:07:55;2.88;;;1.50;;
23573;SDS011;11965;53.640;10.050;2022-09-06T13:10:25;1.90;;;1.40;;
23573;SDS011;11965;53.640;10.050;2022-09-06T13:12:54;3.70;;;1.83;;
23573;SDS011;11965;53.640;10.050;2022-09-06T13:15:23;1.98;;;1.50;;
23573;SDS011;11965;53.640;10.050;2022-09-06T13:17:52;3.15;;;1.63;;
23573;SDS011;11965;53.640;10.050;2022-09-06T13:20:28;3.00;;;1.40;;
23573;SDS011;11965;53.640;10.050;2022-09-06T13:23:05;1.80;;;1.67;;
23573;SDS011;11965;53.640;10.050;2022-09-06T13:25:34;5.50;;;1.50;;
23573;SDS011;11965;53.640;10.050;2022-09-06T13:28:09;5.03;;;1.70;;
23573;SDS011;11965;53.640;10.050;2022-09-06T13:30:39;2.83;;;1.63;;
23573;SDS011;11965;53.640;10.050;2022-09-06T13:33:07;2.38;;;1.50;;
23573;SDS011;11965;53.640;10.050;2022-09-06T13:35:44;3.05;;;1.38;;
23573;SDS011;11965;53.640;10.050;2022-09-06T13:38:33;4.35;;;1.58;;
23573;SDS011;11965;53.640;10.050;2022-09-06T13:41:03;2.10;;;1.60;;
23573;SDS011;11965;53.640;10.050;2022-09-06T13:43:38;2.38;;;1.30;;
23573;SDS011;11965;53.640;10.050;2022-09-06T13:46:08;3.05;;;2.08;;
23573;SDS011;11965;53.640;10.050;2022-09-06T13:48:35;3.20;;;1.58;;
23573;SDS011;11965;53.640;10.050;2022-09-06T13:51:04;3.03;;;1.70;;
23573;SDS011;11965;53.640;10.050;2022-09-06T13:53:31;2.10;;;1.52;;
23573;SDS011;11965;53.640;10.050;2022-09-06T13:55:57;2.00;;;1.50;;
23573;SDS011;11965;53.640;10.050;2022-09-06T13:58:23;1.65;;;1.45;;
23573;SDS011;11965;53.640;10.050;2022-09-06T14:00:49;1.40;;;1.23;;
23573;SDS011;11965;53.640;10.050;2022-09-06T14:03:29;3.55;;;1.65;;
23573;SDS011;11965;53.640;10.050;2022-09-06T14:05:56;1.92;;;1.50;;
23573;SDS011;11965;53.640;10.050;2022-09-06T14:08:24;5.15;;;1.65;;
23573;SDS011;11965;53.640;10.050;2022-09-06T14:10:50;2.03;;;1.48;;
23573;SDS011;11965;53.640;10.050;2022-09-06T14:13:16;2.60;;;1.50;;
23573;SDS011;11965;53.640;10.050;2022-09-06T14:15:43;3.95;;;1.80;;
23573;SDS011;11965;53.640;10.050;2022-09-06T14:18:10;2.72;;;1.52;;
23573;SDS011;11965;53.640;10.050;2022-09-06T14:20:35;2.13;;;1.50;;
23573;SDS011;11965;53.640;10.050;2022-09-06T14:23:01;1.40;;;1.30;;
23573;SDS011;11965;53.640;10.050;2022-09-06T14:25:27;2.35;;;1.70;;
23573;SDS011;11965;53.640;10.050;2022-09-06T14:27:53;2.50;;;1.58;;
23573;SDS011;11965;53.640;10.050;2022-09-06T14:30:18;2.92;;;1.40;;
23573;SDS011;11965;53.640;10.050;2022-09-06T14:32:44;2.15;;;1.40;;
23573;SDS011;11965;53.640;10.050;2022-09-06T14:35:10;3.08;;;1.50;;
23573;SDS011;11965;53.640;10.050;2022-09-06T14:37:35;3.88;;;1.65;;
23573;SDS011;11965;53.640;10.050;2022-09-06T14:40:01;2.58;;;1.40;;
23573;SDS011;11965;53.640;10.050;2022-09-06T14:42:27;2.33;;;1.70;;
23573;SDS011;11965;53.640;10.050;2022-09-06T14:44:53;2.38;;;1.55;;
23573;SDS011;11965;53.640;10.050;2022-09-06T14:47:18;2.78;;;1.48;;
23573;SDS011;11965;53.640;10.050;2022-09-06T14:49:44;1.67;;;1.17;;
23573;SDS011;11965;53.640;10.050;2022-09-06T14:52:10;2.08;;;1.55;;
23573;SDS011;11965;53.640;10.050;2022-09-06T14:54:36;1.90;;;1.70;;
23573;SDS011;11965;53.640;10.050;2022-09-06T14:57:01;2.33;;;1.42;;
23573;SDS011;11965;53.640;10.050;2022-09-06T14:59:27;2.28;;;1.50;;
23573;SDS011;11965;53.640;10.050;2022-09-06T15:01:53;1.75;;;1.50;;
23573;SDS011;11965;53.640;10.050;2022-09-06T15:04:18;2.42;;;1.75;;
23573;SDS011;11965;53.640;10.050;2022-09-06T15:06:44;2.30;;;1.50;;
23573;SDS011;11965;53.640;10.050;2022-09-06T15:09:14;1.65;;;1.45;;
23573;SDS011;11965;53.640;10.050;2022-09-06T15:11:42;1.95;;;1.60;;
23573;SDS011;11965;53.640;10.050;2022-09-06T15:14:13;4.03;;;1.50;;
23573;SDS011;11965;53.640;10.050;2022-09-06T15:16:45;2.20;;;1.40;;
23573;SDS011;11965;53.640;10.050;2022-09-06T15:19:12;2.72;;;1.70;;
23573;SDS011;11965;53.640;10.050;2022-09-06T15:21:38;2.20;;;1.77;;
23573;SDS011;11965;53.640;10.050;2022-09-06T15:24:03;3.30;;;1.67;;
23573;SDS011;11965;53.640;10.050;2022-09-06T15:26:30;3.10;;;1.90;;
23573;SDS011;11965;53.640;10.050;2022-09-06T15:28:57;1.98;;;1.70;;
23573;SDS011;11965;53.640;10.050;2022-09-06T15:31:23;2.60;;;1.63;;
23573;SDS011;11965;53.640;10.050;2022-09-06T15:33:49;2.75;;;1.70;;
23573;SDS011;11965;53.640;10.050;2022-09-06T15:36:15;2.00;;;1.80;;
23573;SDS011;11965;53.640;10.050;2022-09-06T15:38:46;3.28;;;1.70;;
23573;SDS011;11965;53.640;10.050;2022-09-06T15:41:18;3.95;;;1.83;;
23573;SDS011;11965;53.640;10.050;2022-09-06T15:43:50;2.53;;;1.73;;
23573;SDS011;11965;53.640;10.050;2022-09-06T15:46:19;1.67;;;1.50;;
23573;SDS011;11965;53.640;10.050;2022-09-06T15:48:58;3.92;;;1.88;;
23573;SDS011;11965;53.640;10.050;2022-09-06T15:51:26;3.45;;;1.85;;
23573;SDS011;11965;53.640;10.050;2022-09-06T15:53:52;3.67;;;1.55;;
23573;SDS011;11965;53.640;10.050;2022-09-06T15:56:18;2.85;;;1.83;;
23573;SDS011;11965;53.640;10.050;2022-09-06T15:58:44;4.65;;;1.90;;
23573;SDS011;11965;53.640;10.050;2022-09-06T16:01:11;3.80;;;1.50;;
23573;SDS011;11965;53.640;10.050;2022-09-06T16:03:40;2.47;;;1.70;;
23573;SDS011;11965;53.640;10.050;2022-09-06T16:06:09;2.63;;;1.50;;
23573;SDS011;11965;53.640;10.050;2022-09-06T16:08:36;1.73;;;1.30;;
23573;SDS011;11965;53.640;10.050;2022-09-06T16:11:08;2.45;;;1.60;;
23573;SDS011;11965;53.640;10.050;2022-09-06T16:13:36;2.03;;;1.77;;
23573;SDS011;11965;53.640;10.050;2022-09-06T16:16:05;1.60;;;1.50;;
23573;SDS011;11965;53.640;10.050;2022-09-06T16:18:36;2.00;;;1.48;;
23573;SDS011;11965;53.640;10.050;2022-09-06T16:23:33;2.38;;;1.55;;
23573;SDS011;11965;53.640;10.050;2022-09-06T16:26:00;4.55;;;1.30;;
23573;SDS011;11965;53.640;10.050;2022-09-06T16:28:27;1.48;;;1.30;;
23573;SDS011;11965;53.640;10.050;2022-09-06T16:30:55;4.70;;;1.63;;
23573;SDS011;11965;53.640;10.050;2022-09-06T16:33:20;8.05;;;1.50;;
23573;SDS011;11965;53.640;10.050;2022-09-06T16:35:46;3.22;;;1.45;;
23573;SDS011;11965;53.640;10.050;2022-09-06T16:38:11;1.35;;;1.17;;
23573;SDS011;11965;53.640;10.050;2022-09-06T16:40:41;1.92;;;1.75;;